Pilot No. 4 — WDA5463 — position and weather

sailwx.info

Track history (hours):
 
Tides and Currents Weather Stations Pressure Air Temp Water Temp Dewpoint Dewpoint Depression Visibility Wind Speed Wind Dir Waves Ship Positions

Pilot No. 4

More information available from US FCC via Universal Licensing System and Coast Guard Vessel Documentation Center.

Last reported at 2014-Jul-23 05:21 UTC. Time now 2014-Jul-23 13:38 UTC.
Position N 26°06' W 080°07'.

MMSI: 495270931.

Date/timePositionNaut miles runAvg speedWind from/ knotsBaromVisibWave heightAir tempDewpointWater temp
2014-Jul-23 05:21N 26°06' W 080°07'3 3.4
2014-Jul-23 04:33N 26°05' W 080°04'3 0.3
2014-Jul-22 18:07N 26°06' W 080°07'1 1.8
2014-Jul-22 17:33N 26°06' W 080°06'1 0.2
2014-Jul-22 14:33N 26°05' W 080°07'0 0.1
2014-Jul-22 13:34N 26°05' W 080°07'0 0.1
2014-Jul-22 12:33N 26°06' W 080°07'1 0.0
2014-Jul-21 18:33N 26°06' W 080°07'0 0.1
2014-Jul-21 16:34N 26°06' W 080°07'1 0.8
2014-Jul-21 15:33N 26°05' W 080°07'  
2014-Jul-17 23:16N 26°06' W 080°07'0 0.0
2014-Jul-17 22:33N 26°06' W 080°07'0 0.0
2014-Jul-17 21:33N 26°06' W 080°07'0 0.0
2014-Jul-17 20:33N 26°06' W 080°07'0 0.0
2014-Jul-17 19:33N 26°06' W 080°07'0 0.0
2014-Jul-17 18:33N 26°06' W 080°07'0 0.0
2014-Jul-17 17:33N 26°06' W 080°07'0 0.0
2014-Jul-17 16:33N 26°06' W 080°07'2 1.1
2014-Jul-17 14:34N 26°04' W 080°06'7 6.9
2014-Jul-17 13:33N 25°57' W 080°06'  
Track history (hours):
 
Tides and Currents Weather Stations Pressure Air Temp Water Temp Dewpoint Dewpoint Depression Visibility Wind Speed Wind Dir Waves Ship Positions

Pilot No. 4

More information available from US FCC via Universal Licensing System and Coast Guard Vessel Documentation Center.

Last reported at 2014-Jul-23 05:21 UTC. Time now 2014-Jul-23 13:38 UTC.
Position N 26°06' W 080°07'.

MMSI: 495270931.

Date/timePositionNaut miles runAvg speedWind from/ knotsBaromVisibWave heightAir tempDewpointWater temp
2014-Jul-23 05:21N 26°06' W 080°07'3 3.4
2014-Jul-23 04:33N 26°05' W 080°04'3 0.3
2014-Jul-22 18:07N 26°06' W 080°07'1 1.8
2014-Jul-22 17:33N 26°06' W 080°06'1 0.2
2014-Jul-22 14:33N 26°05' W 080°07'0 0.1
2014-Jul-22 13:34N 26°05' W 080°07'0 0.1
2014-Jul-22 12:33N 26°06' W 080°07'1 0.0
2014-Jul-21 18:33N 26°06' W 080°07'0 0.1
2014-Jul-21 16:34N 26°06' W 080°07'1 0.8
2014-Jul-21 15:33N 26°05' W 080°07'  
2014-Jul-17 23:16N 26°06' W 080°07'0 0.0
2014-Jul-17 22:33N 26°06' W 080°07'0 0.0
2014-Jul-17 21:33N 26°06' W 080°07'0 0.0
2014-Jul-17 20:33N 26°06' W 080°07'0 0.0
2014-Jul-17 19:33N 26°06' W 080°07'0 0.0
2014-Jul-17 18:33N 26°06' W 080°07'0 0.0
2014-Jul-17 17:33N 26°06' W 080°07'0 0.0
2014-Jul-17 16:33N 26°06' W 080°07'2 1.1
2014-Jul-17 14:34N 26°04' W 080°06'7 6.9
2014-Jul-17 13:33N 25°57' W 080°06'  

Dump ship's entire track history